Time;durP1;ratioP1;P1;durP2;ratioP2;P2;SDS_P1;SDS_P2;PMS_P1;PMS_P2;Temp;Humidity;BMP_temperature;BMP_pressure;BME280_temperature;BME280_humidity;BME280_pressure;Samples;Min_cycle;Max_cycle;Signal;HPM_P1;HPM_P2
2021/08/24 00:01:40;;;;;;;6.00;5.50;;;;;;;;;;5072199;28;20354;-80
2021/08/24 00:04:06;;;;;;;5.43;4.93;;;;;;;;;;5076824;28;20109;-80
2021/08/24 00:06:32;;;;;;;7.10;6.43;;;;;;;;;;5077801;28;20021;-81
2021/08/24 00:08:58;;;;;;;6.00;5.50;;;;;;;;;;5072559;28;20061;-81
2021/08/24 00:11:24;;;;;;;5.60;5.10;;;;;;;;;;5059789;28;20101;-81
2021/08/24 00:13:50;;;;;;;5.63;5.05;;;;;;;;;;5061687;28;20075;-82
2021/08/24 00:16:17;;;;;;;5.18;4.68;;;;;;;;;;5057459;28;20136;-83
2021/08/24 00:18:46;;;;;;;4.85;4.38;;;;;;;;;;5060911;28;20201;-84
2021/08/24 00:21:12;;;;;;;4.53;4.13;;;;;;;;;;5060431;28;20025;-83
2021/08/24 00:23:39;;;;;;;4.60;4.15;;;;;;;;;;5058988;28;20029;-84
2021/08/24 00:26:05;;;;;;;3.92;3.53;;;;;;;;;;5060434;28;20413;-84
2021/08/24 00:28:31;;;;;;;3.83;3.53;;;;;;;;;;5060641;28;20051;-81
2021/08/24 00:30:57;;;;;;;3.58;3.28;;;;;;;;;;5057235;28;20070;-82
2021/08/24 00:33:23;;;;;;;5.10;4.60;;;;;;;;;;5059054;28;20103;-81
2021/08/24 00:35:49;;;;;;;4.22;3.83;;;;;;;;;;5059371;28;20631;-83
2021/08/24 00:38:17;;;;;;;3.42;3.10;;;;;;;;;;5060913;28;20040;-83
2021/08/24 00:40:49;;;;;;;3.60;3.30;;;;;;;;;;5060022;28;20055;-83
2021/08/24 00:43:15;;;;;;;3.50;3.20;;;;;;;;;;5068050;28;20032;-79
2021/08/24 00:45:43;;;;;;;3.53;3.22;;;;;;;;;;5067344;28;20077;-83
2021/08/24 00:48:09;;;;;;;3.10;2.90;;;;;;;;;;5058291;28;20123;-83
2021/08/24 00:50:37;;;;;;;4.50;4.10;;;;;;;;;;5058876;28;20109;-84
2021/08/24 00:53:09;;;;;;;7.13;6.43;;;;;;;;;;5058163;28;20031;-81
2021/08/24 00:55:35;;;;;;;;;;;;;;;;;;5058674;28;20488;-82
2021/08/24 00:58:05;;;;;;;4.45;4.15;;;;;;;;;;5084511;28;19916;-80
2021/08/24 01:00:31;;;;;;;3.83;3.53;;;;;;;;;;5071042;28;20035;-81
2021/08/24 01:03:00;;;;;;;4.40;4.07;;;;;;;;;;5070995;28;20013;-81
2021/08/24 01:05:28;;;;;;;3.92;3.63;;;;;;;;;;5071812;28;20056;-83
2021/08/24 01:08:14;;;;;;;4.40;4.00;;;;;;;;;;5069390;28;20029;-83
2021/08/24 01:10:43;;;;;;;4.03;3.63;;;;;;;;;;5060769;28;20041;-83
2021/08/24 01:13:15;;;;;;;3.72;3.25;;;;;;;;;;5059294;28;20036;-85
2021/08/24 01:15:47;;;;;;;3.95;2.97;;;;;;;;;;5060702;28;20058;-83
2021/08/24 01:18:18;;;;;;;4.45;3.35;;;;;;;;;;5059373;28;20130;-83
2021/08/24 01:21:13;;;;;;;3.28;2.40;;;;;;;;;;5059378;28;20033;-84
2021/08/24 01:23:39;;;;;;;2.55;2.35;;;;;;;;;;5039938;28;20037;-83
2021/08/24 01:26:14;;;;;;;2.53;1.95;;;;;;;;;;5059014;28;20040;-83
2021/08/24 01:28:43;;;;;;;2.35;2.15;;;;;;;;;;5059889;28;20025;-82
2021/08/24 01:31:21;;;;;;;3.60;2.50;;;;;;;;;;5059529;28;20063;-84
2021/08/24 01:33:55;;;;;;;2.47;2.28;;;;;;;;;;5058795;28;20029;-84
2021/08/24 01:36:27;;;;;;;2.60;2.40;;;;;;;;;;5058165;28;20021;-83
2021/08/24 01:38:59;;;;;;;4.38;2.80;;;;;;;;;;5060598;28;20039;-83
2021/08/24 01:41:30;;;;;;;2.75;2.58;;;;;;;;;;5059809;28;20064;-84
2021/08/24 01:43:59;;;;;;;3.13;2.93;;;;;;;;;;5058512;28;20016;-87
2021/08/24 01:46:31;;;;;;;2.50;2.40;;;;;;;;;;5060946;28;20033;-83
2021/08/24 01:49:00;;;;;;;3.10;2.88;;;;;;;;;;5057412;28;20047;-82
2021/08/24 01:51:30;;;;;;;3.05;2.85;;;;;;;;;;5058511;28;20441;-81
2021/08/24 01:54:06;;;;;;;3.72;2.92;;;;;;;;;;5062158;28;20469;-84
2021/08/24 01:56:35;;;;;;;2.80;2.60;;;;;;;;;;5067283;28;20028;-84
2021/08/24 01:59:07;;;;;;;5.43;2.80;;;;;;;;;;5074708;28;20027;-81
2021/08/24 02:01:36;;;;;;;3.00;2.47;;;;;;;;;;5068193;28;20096;-83
2021/08/24 02:04:05;;;;;;;3.97;2.63;;;;;;;;;;5057472;28;20033;-83
2021/08/24 02:06:39;;;;;;;2.83;2.63;;;;;;;;;;5059072;28;20111;-86
2021/08/24 02:09:18;;;;;;;2.40;2.20;;;;;;;;;;5059540;28;20565;-84
2021/08/24 02:11:44;;;;;;;2.58;2.38;;;;;;;;;;5059152;28;20097;-84
2021/08/24 02:14:12;;;;;;;2.72;2.53;;;;;;;;;;5057216;28;20029;-83
2021/08/24 02:16:38;;;;;;;3.03;2.55;;;;;;;;;;5038359;28;20021;-82
2021/08/24 02:19:12;;;;;;;2.70;2.50;;;;;;;;;;5053739;28;20045;-83
2021/08/24 02:21:46;;;;;;;2.90;2.67;;;;;;;;;;5039196;28;20033;-83
2021/08/24 02:24:14;;;;;;;2.70;2.50;;;;;;;;;;5040168;28;20025;-83
2021/08/24 02:26:41;;;;;;;4.53;2.42;;;;;;;;;;5056531;28;20025;-83
2021/08/24 02:29:07;;;;;;;3.33;2.47;;;;;;;;;;5056919;28;20028;-83
2021/08/24 02:31:39;;;;;;;4.25;2.30;;;;;;;;;;5058009;28;20066;-84
2021/08/24 02:34:25;;;;;;;2.70;2.50;;;;;;;;;;5058856;28;20055;-84
2021/08/24 02:37:07;;;;;;;6.00;2.80;;;;;;;;;;5059571;28;20263;-84
2021/08/24 02:39:33;;;;;;;;;;;;;;;;;;5061411;28;20431;-84
2021/08/24 02:42:20;;;;;;;2.75;2.05;;;;;;;;;;5061993;28;19912;-84
2021/08/24 02:44:57;;;;;;;2.53;2.10;;;;;;;;;;5062434;28;20483;-84
2021/08/24 02:47:23;;;;;;;2.47;2.28;;;;;;;;;;5061102;28;20029;-84
2021/08/24 02:49:51;;;;;;;4.10;2.20;;;;;;;;;;5070570;28;20012;-81
2021/08/24 02:52:18;;;;;;;3.45;2.35;;;;;;;;;;5063322;28;20032;-84
2021/08/24 02:54:47;;;;;;;3.42;2.40;;;;;;;;;;5064735;28;20085;-84
2021/08/24 02:57:14;;;;;;;2.58;2.20;;;;;;;;;;5062387;28;20033;-85
2021/08/24 02:59:40;;;;;;;2.40;2.13;;;;;;;;;;5061349;28;20112;-84
2021/08/24 03:02:07;;;;;;;2.30;2.10;;;;;;;;;;5061737;28;20417;-85
2021/08/24 03:04:33;;;;;;;4.50;2.17;;;;;;;;;;5060000;28;20021;-84
2021/08/24 03:07:02;;;;;;;2.15;1.83;;;;;;;;;;5060955;28;20436;-85
2021/08/24 03:09:30;;;;;;;3.90;2.22;;;;;;;;;;5062073;28;20108;-84
2021/08/24 03:12:05;;;;;;;2.67;1.98;;;;;;;;;;5062336;28;20056;-84
2021/08/24 03:14:43;;;;;;;2.72;2.15;;;;;;;;;;5060275;28;20032;-85
2021/08/24 03:17:13;;;;;;;2.28;2.08;;;;;;;;;;5062119;28;20029;-85
2021/08/24 03:19:41;;;;;;;1.70;1.60;;;;;;;;;;5064448;28;20037;-81
2021/08/24 03:22:08;;;;;;;2.65;2.00;;;;;;;;;;5063829;28;20021;-85
2021/08/24 03:24:35;;;;;;;3.45;2.20;;;;;;;;;;5061927;28;20096;-85
2021/08/24 03:27:01;;;;;;;2.60;1.90;;;;;;;;;;5061828;28;20387;-85
2021/08/24 03:29:27;;;;;;;3.47;2.20;;;;;;;;;;5061240;28;20092;-83
2021/08/24 03:31:55;;;;;;;4.45;2.40;;;;;;;;;;5061672;28;20170;-83
2021/08/24 03:34:21;;;;;;;2.35;2.08;;;;;;;;;;5062077;28;20036;-85
2021/08/24 03:36:47;;;;;;;3.80;2.03;;;;;;;;;;5060827;28;20583;-83
2021/08/24 03:39:13;;;;;;;3.25;2.40;;;;;;;;;;5061031;28;20033;-83
2021/08/24 03:41:39;;;;;;;2.33;1.95;;;;;;;;;;5060676;28;20044;-85
2021/08/24 03:44:05;;;;;;;3.72;2.33;;;;;;;;;;5073661;28;20047;-80
2021/08/24 03:46:34;;;;;;;2.58;2.05;;;;;;;;;;5074673;28;20030;-82
2021/08/24 03:49:00;;;;;;;4.97;2.67;;;;;;;;;;5066190;28;20021;-85
2021/08/24 03:51:27;;;;;;;3.17;2.60;;;;;;;;;;5059620;28;20029;-84
2021/08/24 03:53:53;;;;;;;4.32;2.28;;;;;;;;;;5061007;28;20440;-82
2021/08/24 03:56:19;;;;;;;3.05;2.63;;;;;;;;;;5060734;28;20037;-82
2021/08/24 03:58:45;;;;;;;2.92;2.50;;;;;;;;;;5059601;28;20071;-84
2021/08/24 04:01:12;;;;;;;3.45;2.38;;;;;;;;;;5060413;28;20029;-84
2021/08/24 04:03:38;;;;;;;4.35;2.33;;;;;;;;;;5063757;28;20048;-82
2021/08/24 04:06:04;;;;;;;4.15;2.63;;;;;;;;;;5060977;28;20117;-82
2021/08/24 04:08:30;;;;;;;3.22;2.53;;;;;;;;;;5059790;28;20036;-81
2021/08/24 04:10:57;;;;;;;4.25;2.75;;;;;;;;;;5059853;28;20106;-84
2021/08/24 04:13:23;;;;;;;3.92;3.00;;;;;;;;;;5060478;28;20033;-83
2021/08/24 04:15:50;;;;;;;3.75;2.88;;;;;;;;;;5062409;28;20033;-83
2021/08/24 04:18:16;;;;;;;6.57;3.53;;;;;;;;;;5063149;28;20059;-83
2021/08/24 04:20:43;;;;;;;5.78;3.30;;;;;;;;;;5064221;28;20048;-81
2021/08/24 04:23:12;;;;;;;5.28;3.38;;;;;;;;;;5070505;28;20033;-81
2021/08/24 04:25:38;;;;;;;4.07;3.15;;;;;;;;;;5071980;28;20021;-82
2021/08/24 04:28:04;;;;;;;3.45;2.92;;;;;;;;;;5063819;28;20067;-81
2021/08/24 04:30:30;;;;;;;5.82;3.50;;;;;;;;;;5063966;28;20032;-82
2021/08/24 04:32:56;;;;;;;4.78;3.30;;;;;;;;;;5063000;28;20024;-81
2021/08/24 04:35:22;;;;;;;6.22;3.13;;;;;;;;;;5063410;28;20555;-83
2021/08/24 04:37:48;;;;;;;6.38;4.15;;;;;;;;;;5065385;28;20025;-84
2021/08/24 04:40:15;;;;;;;6.53;3.92;;;;;;;;;;5061191;28;20029;-84
2021/08/24 04:42:41;;;;;;;5.35;3.63;;;;;;;;;;5058193;28;20160;-82
2021/08/24 04:45:08;;;;;;;4.90;3.92;;;;;;;;;;5059891;28;20025;-83
2021/08/24 04:47:34;;;;;;;4.53;3.15;;;;;;;;;;5063628;28;20005;-83
2021/08/24 04:50:01;;;;;;;5.47;3.35;;;;;;;;;;5064599;28;20032;-83
2021/08/24 04:52:27;;;;;;;4.57;3.95;;;;;;;;;;5071329;28;20100;-82
2021/08/24 04:54:53;;;;;;;7.22;3.15;;;;;;;;;;5085711;23;20141;-80
2021/08/24 04:57:22;;;;;;;5.50;3.78;;;;;;;;;;5047713;28;20033;-81
2021/08/24 04:59:48;;;;;;;10.27;4.32;;;;;;;;;;5058809;28;20534;-80
2021/08/24 05:02:14;;;;;;;5.82;3.90;;;;;;;;;;5057101;28;20033;-81
2021/08/24 05:04:43;;;;;;;5.78;3.70;;;;;;;;;;5059067;28;20461;-81
2021/08/24 05:07:09;;;;;;;5.55;4.00;;;;;;;;;;5057332;28;20029;-80
2021/08/24 05:09:35;;;;;;;5.38;3.55;;;;;;;;;;5059050;28;20108;-80
2021/08/24 05:12:01;;;;;;;5.35;3.97;;;;;;;;;;5059374;28;20021;-81
2021/08/24 05:14:27;;;;;;;4.30;3.80;;;;;;;;;;5058598;28;20032;-80
2021/08/24 05:17:00;;;;;;;4.72;3.45;;;;;;;;;;5056794;28;20058;-80
2021/08/24 05:19:27;;;;;;;4.55;3.20;;;;;;;;;;5057928;28;20039;-81
2021/08/24 05:21:53;;;;;;;5.10;3.50;;;;;;;;;;5069612;28;20015;-81
2021/08/24 05:24:19;;;;;;;7.65;3.67;;;;;;;;;;5067275;28;20036;-81
2021/08/24 05:26:46;;;;;;;5.32;4.18;;;;;;;;;;5066050;28;20043;-81
2021/08/24 05:29:15;;;;;;;5.13;3.65;;;;;;;;;;5072881;28;20032;-82
2021/08/24 05:31:41;;;;;;;7.68;3.85;;;;;;;;;;5061307;28;20032;-80
2021/08/24 05:34:08;;;;;;;6.38;3.72;;;;;;;;;;5057149;28;20195;-80
2021/08/24 05:36:34;;;;;;;5.70;4.63;;;;;;;;;;5058148;28;20025;-81
2021/08/24 05:39:02;;;;;;;4.65;3.90;;;;;;;;;;5058838;28;20025;-80
2021/08/24 05:41:28;;;;;;;5.75;3.95;;;;;;;;;;5058281;28;20032;-81
2021/08/24 05:43:54;;;;;;;7.28;4.40;;;;;;;;;;5059763;28;20049;-81
2021/08/24 05:46:20;;;;;;;7.43;4.68;;;;;;;;;;5058170;28;20036;-81
2021/08/24 05:48:46;;;;;;;6.03;3.97;;;;;;;;;;5058568;28;20127;-81
2021/08/24 05:51:14;;;;;;;7.75;4.45;;;;;;;;;;5058059;28;20025;-81
2021/08/24 05:53:40;;;;;;;6.18;4.60;;;;;;;;;;5056776;28;20370;-80
2021/08/24 05:56:10;;;;;;;9.32;4.25;;;;;;;;;;5059078;28;20112;-81
2021/08/24 05:58:36;;;;;;;5.28;3.97;;;;;;;;;;5059820;28;20029;-82
2021/08/24 06:01:03;;;;;;;6.30;4.45;;;;;;;;;;5065632;28;20040;-81
2021/08/24 06:03:29;;;;;;;6.22;4.07;;;;;;;;;;5062696;28;20120;-80
2021/08/24 06:05:58;;;;;;;8.50;5.15;;;;;;;;;;5059107;28;20060;-81
2021/08/24 06:08:27;;;;;;;5.47;4.18;;;;;;;;;;5057926;28;20036;-80
2021/08/24 06:10:53;;;;;;;5.68;4.70;;;;;;;;;;5063144;28;20098;-81
2021/08/24 06:13:19;;;;;;;5.57;4.47;;;;;;;;;;5061104;28;20056;-81
2021/08/24 06:15:48;;;;;;;6.40;4.40;;;;;;;;;;5063651;28;20084;-81
2021/08/24 06:18:14;;;;;;;7.90;4.70;;;;;;;;;;5060971;28;20065;-81
2021/08/24 06:20:42;;;;;;;6.05;4.20;;;;;;;;;;5060462;28;20028;-80
2021/08/24 06:23:08;;;;;;;5.15;3.60;;;;;;;;;;5061141;28;20027;-81
2021/08/24 06:25:34;;;;;;;6.60;4.57;;;;;;;;;;5062721;28;20079;-81
2021/08/24 06:28:00;;;;;;;4.78;4.05;;;;;;;;;;5062889;28;20029;-80
2021/08/24 06:30:26;;;;;;;6.10;5.05;;;;;;;;;;5061189;28;20072;-80
2021/08/24 06:32:54;;;;;;;5.25;4.75;;;;;;;;;;5062295;28;20051;-80
2021/08/24 06:35:22;;;;;;;5.60;4.35;;;;;;;;;;5062133;28;20049;-80
2021/08/24 06:37:48;;;;;;;4.57;4.00;;;;;;;;;;5061902;28;20032;-80
2021/08/24 06:40:15;;;;;;;5.47;4.25;;;;;;;;;;5063208;28;20404;-80
2021/08/24 06:42:43;;;;;;;5.57;3.83;;;;;;;;;;5062420;28;20020;-81
2021/08/24 06:45:12;;;;;;;6.32;3.85;;;;;;;;;;5062032;28;20029;-81
2021/08/24 06:47:38;;;;;;;6.45;3.97;;;;;;;;;;5062554;28;20041;-81
2021/08/24 06:50:04;;;;;;;4.40;3.90;;;;;;;;;;5061544;28;20025;-81
2021/08/24 06:52:33;;;;;;;6.35;4.20;;;;;;;;;;5061042;28;20384;-79
2021/08/24 06:54:59;;;;;;;5.47;4.22;;;;;;;;;;5059217;28;20086;-80
2021/08/24 06:57:25;;;;;;;5.55;3.67;;;;;;;;;;5059922;28;20028;-80
2021/08/24 06:59:51;;;;;;;6.90;3.90;;;;;;;;;;5061610;28;20025;-79
2021/08/24 07:02:17;;;;;;;6.68;4.63;;;;;;;;;;5061709;28;20048;-81
2021/08/24 07:04:47;;;;;;;5.75;3.72;;;;;;;;;;5062609;28;20025;-83
2021/08/24 07:07:13;;;;;;;3.97;3.58;;;;;;;;;;5063042;28;20017;-82
2021/08/24 07:09:39;;;;;;;4.13;3.72;;;;;;;;;;5062686;28;20021;-80
2021/08/24 07:12:05;;;;;;;4.35;3.33;;;;;;;;;;5062219;28;20121;-80
2021/08/24 07:14:31;;;;;;;4.20;3.50;;;;;;;;;;5061952;28;20397;-79
2021/08/24 07:16:57;;;;;;;4.53;3.97;;;;;;;;;;5059565;28;20394;-80
2021/08/24 07:19:24;;;;;;;3.63;3.33;;;;;;;;;;5061845;28;20025;-80
2021/08/24 07:21:50;;;;;;;3.40;3.10;;;;;;;;;;5060158;28;20029;-81
2021/08/24 07:24:16;;;;;;;5.05;3.35;;;;;;;;;;5061622;28;20446;-80
2021/08/24 07:26:42;;;;;;;7.18;3.42;;;;;;;;;;5061518;28;20021;-80
2021/08/24 07:29:08;;;;;;;4.35;3.30;;;;;;;;;;5062819;28;20021;-81
2021/08/24 07:31:37;;;;;;;3.35;3.00;;;;;;;;;;5061454;28;20517;-80
2021/08/24 07:34:03;;;;;;;3.17;2.50;;;;;;;;;;5059123;28;20041;-80
2021/08/24 07:36:29;;;;;;;2.50;2.30;;;;;;;;;;5061166;28;20032;-81
2021/08/24 07:38:55;;;;;;;3.33;2.60;;;;;;;;;;5060207;28;20029;-81
2021/08/24 07:41:21;;;;;;;5.90;3.50;;;;;;;;;;5061130;28;20477;-81
2021/08/24 07:43:48;;;;;;;4.22;3.13;;;;;;;;;;5062029;28;20040;-81
2021/08/24 07:46:14;;;;;;;3.78;2.85;;;;;;;;;;5070599;28;20025;-79
2021/08/24 07:48:40;;;;;;;3.60;2.63;;;;;;;;;;5067079;28;20020;-81
2021/08/24 07:51:06;;;;;;;7.68;2.70;;;;;;;;;;5064073;28;20036;-80
2021/08/24 07:53:32;;;;;;;2.88;2.67;;;;;;;;;;5062500;28;20080;-81
2021/08/24 07:55:58;;;;;;;3.38;3.08;;;;;;;;;;5063675;28;20059;-80
2021/08/24 07:58:24;;;;;;;3.80;3.00;;;;;;;;;;5065425;28;20036;-80
2021/08/24 08:00:50;;;;;;;3.55;3.20;;;;;;;;;;5064539;28;20036;-80
2021/08/24 08:03:19;;;;;;;4.68;3.97;;;;;;;;;;5061598;28;20021;-80
2021/08/24 08:05:45;;;;;;;4.15;3.70;;;;;;;;;;5062579;28;20021;-80
2021/08/24 08:08:11;;;;;;;4.20;3.17;;;;;;;;;;5061324;28;20059;-80
2021/08/24 08:10:38;;;;;;;6.68;4.05;;;;;;;;;;5061002;28;20048;-80
2021/08/24 08:13:04;;;;;;;6.47;3.58;;;;;;;;;;5060788;28;20385;-80
2021/08/24 08:15:33;;;;;;;4.90;3.40;;;;;;;;;;5059312;28;20025;-80
2021/08/24 08:18:00;;;;;;;5.10;3.72;;;;;;;;;;5060797;28;20067;-79
2021/08/24 08:20:26;;;;;;;4.15;3.60;;;;;;;;;;5059294;28;20063;-80
2021/08/24 08:22:52;;;;;;;7.72;5.15;;;;;;;;;;5064117;28;20033;-80
2021/08/24 08:25:18;;;;;;;5.30;4.28;;;;;;;;;;5067183;28;20116;-80
2021/08/24 08:27:44;;;;;;;4.93;4.43;;;;;;;;;;5067683;28;20025;-80
2021/08/24 08:30:11;;;;;;;4.25;3.83;;;;;;;;;;5066714;28;20212;-79
2021/08/24 08:32:38;;;;;;;5.85;3.80;;;;;;;;;;5066972;28;20044;-81
2021/08/24 08:35:05;;;;;;;5.40;4.10;;;;;;;;;;5067705;28;20009;-81
2021/08/24 08:37:31;;;;;;;3.97;3.53;;;;;;;;;;5068902;28;20056;-80
2021/08/24 08:39:57;;;;;;;3.92;3.45;;;;;;;;;;5070704;28;20029;-80
2021/08/24 08:42:29;;;;;;;4.93;3.60;;;;;;;;;;5068930;28;20036;-81
2021/08/24 08:44:55;;;;;;;;;;;;;;;;;;5067402;28;20027;-80
2021/08/24 08:47:39;;;;;;;4.38;3.80;;;;;;;;;;5086450;28;19968;-81
2021/08/24 08:50:11;;;;;;;6.53;3.40;;;;;;;;;;5070907;28;20029;-80
2021/08/24 08:52:45;;;;;;;5.35;4.68;;;;;;;;;;5071291;28;20017;-81
2021/08/24 08:55:14;;;;;;;6.10;5.07;;;;;;;;;;5071217;28;20040;-80
2021/08/24 08:57:48;;;;;;;5.05;4.40;;;;;;;;;;5073593;28;20088;-80
2021/08/24 09:00:16;;;;;;;5.90;4.82;;;;;;;;;;5075163;28;20025;-80
2021/08/24 09:02:42;;;;;;;6.53;4.13;;;;;;;;;;5075368;28;20041;-80
2021/08/24 09:05:08;;;;;;;4.45;4.00;;;;;;;;;;5075207;28;20017;-80
2021/08/24 09:07:36;;;;;;;7.30;4.88;;;;;;;;;;5074494;28;20033;-80
2021/08/24 09:10:04;;;;;;;6.55;4.38;;;;;;;;;;5072618;28;20028;-80
2021/08/24 09:12:31;;;;;;;7.13;4.40;;;;;;;;;;5063183;28;20037;-81
2021/08/24 09:14:59;;;;;;;6.15;5.25;;;;;;;;;;5060964;28;20035;-81
2021/08/24 09:17:28;;;;;;;6.25;4.75;;;;;;;;;;5061675;28;20049;-81
2021/08/24 09:20:09;;;;;;;4.82;4.32;;;;;;;;;;5067510;28;20096;-80
2021/08/24 09:22:35;;;;;;;8.60;5.20;;;;;;;;;;5061192;28;20166;-81
2021/08/24 09:25:07;;;;;;;5.72;4.57;;;;;;;;;;5060247;28;20017;-81
2021/08/24 09:28:00;;;;;;;4.63;4.18;;;;;;;;;;5062131;28;20087;-81
2021/08/24 09:30:26;;;;;;;4.82;4.13;;;;;;;;;;5036608;28;20094;-81
2021/08/24 09:32:58;;;;;;;5.30;3.90;;;;;;;;;;5058839;28;20417;-81
2021/08/24 09:35:29;;;;;;;5.72;3.88;;;;;;;;;;5058742;28;20029;-81
2021/08/24 09:37:58;;;;;;;4.50;3.70;;;;;;;;;;5059727;28;20052;-81
2021/08/24 09:40:35;;;;;;;5.80;4.40;;;;;;;;;;5063886;28;20365;-81
2021/08/24 09:43:17;;;;;;;4.13;3.63;;;;;;;;;;5062162;28;20035;-81
2021/08/24 09:45:44;;;;;;;5.68;4.20;;;;;;;;;;5069683;28;20025;-80
2021/08/24 09:48:10;;;;;;;4.15;3.78;;;;;;;;;;5065590;28;20235;-80
2021/08/24 09:50:44;;;;;;;4.57;3.67;;;;;;;;;;5059049;28;20029;-80
2021/08/24 09:53:43;;;;;;;4.90;3.05;;;;;;;;;;5060833;28;20021;-80
2021/08/24 09:56:09;;;;;;;2.85;2.65;;;;;;;;;;5027118;28;20041;-80
2021/08/24 09:58:45;;;;;;;3.03;2.75;;;;;;;;;;5058629;28;20123;-80
2021/08/24 10:01:12;;;;;;;3.63;2.60;;;;;;;;;;5059072;28;20084;-80
2021/08/24 10:03:40;;;;;;;2.45;2.25;;;;;;;;;;5059894;28;20021;-80
2021/08/24 10:06:27;;;;;;;2.40;2.20;;;;;;;;;;5059478;28;20111;-81
2021/08/24 10:08:55;;;;;;;2.33;2.13;;;;;;;;;;5059608;28;20084;-81
2021/08/24 10:11:31;;;;;;;3.33;2.30;;;;;;;;;;5058950;28;20068;-80
2021/08/24 10:14:18;;;;;;;2.55;2.28;;;;;;;;;;5059254;28;20029;-80
2021/08/24 10:16:45;;;;;;;2.50;2.30;;;;;;;;;;5057073;28;20075;-80
2021/08/24 10:19:17;;;;;;;5.72;2.55;;;;;;;;;;5059278;28;20039;-80
2021/08/24 10:21:43;;;;;;;;;;;;;;;;;;5061111;28;20025;-80
2021/08/24 10:24:13;;;;;;;3.30;3.00;;;;;;;;;;5062306;28;19912;-79
2021/08/24 10:26:39;;;;;;;3.90;3.00;;;;;;;;;;5061732;28;20131;-80
2021/08/24 10:29:10;;;;;;;4.68;3.10;;;;;;;;;;5062030;28;20025;-80
2021/08/24 10:31:39;;;;;;;2.50;2.30;;;;;;;;;;5060949;28;20040;-80
2021/08/24 10:34:08;;;;;;;2.47;2.28;;;;;;;;;;5060836;28;20338;-80
2021/08/24 10:36:36;;;;;;;2.40;2.20;;;;;;;;;;5060807;28;20469;-80
2021/08/24 10:39:04;;;;;;;2.50;2.30;;;;;;;;;;5060549;28;20021;-79
2021/08/24 10:41:36;;;;;;;3.85;2.65;;;;;;;;;;5061076;28;20036;-81
2021/08/24 10:44:07;;;;;;;3.90;3.45;;;;;;;;;;5059953;28;20021;-80
2021/08/24 10:46:45;;;;;;;3.42;2.80;;;;;;;;;;5060813;28;20026;-81
2021/08/24 10:49:11;;;;;;;3.08;2.78;;;;;;;;;;5061108;28;20097;-81
2021/08/24 10:52:00;;;;;;;2.42;2.17;;;;;;;;;;5061035;28;20190;-81
2021/08/24 10:54:47;;;;;;;2.20;2.00;;;;;;;;;;5060012;28;20100;-80
2021/08/24 10:57:19;;;;;;;1.90;1.80;;;;;;;;;;5075463;23;20041;-83
2021/08/24 11:00:00;;;;;;;1.60;1.50;;;;;;;;;;5065315;28;20025;-82
2021/08/24 11:02:39;;;;;;;1.88;1.63;;;;;;;;;;5071295;28;20043;-83
2021/08/24 11:05:09;;;;;;;1.90;1.80;;;;;;;;;;5072280;28;20021;-83
2021/08/24 11:07:41;;;;;;;1.60;1.50;;;;;;;;;;5077007;28;20032;-83
2021/08/24 11:10:07;;;;;;;;;;;;;;;;;;5076417;28;20028;-83
2021/08/24 11:12:33;;;;;;;2.50;1.83;;;;;;;;;;5090617;28;19909;-84
2021/08/24 11:14:59;;;;;;;2.97;2.22;;;;;;;;;;5076973;28;20108;-85
2021/08/24 11:17:44;;;;;;;2.00;1.80;;;;;;;;;;5074393;28;20040;-84
2021/08/24 11:20:22;;;;;;;2.13;1.92;;;;;;;;;;5078407;28;20013;-85
2021/08/24 11:23:07;;;;;;;2.33;1.67;;;;;;;;;;5073745;28;20052;-84
2021/08/24 11:25:36;;;;;;;1.65;1.55;;;;;;;;;;5068177;28;20123;-83
2021/08/24 11:28:15;;;;;;;1.63;1.52;;;;;;;;;;5068315;28;20036;-85
2021/08/24 11:30:54;;;;;;;1.77;1.67;;;;;;;;;;5068921;28;20021;-85
2021/08/24 11:33:24;;;;;;;1.40;1.30;;;;;;;;;;5067793;28;20029;-84
2021/08/24 11:35:55;;;;;;;1.85;1.67;;;;;;;;;;5068547;28;20029;-83
2021/08/24 11:38:28;;;;;;;3.55;1.92;;;;;;;;;;5068657;28;20028;-83
2021/08/24 11:41:00;;;;;;;1.55;1.38;;;;;;;;;;5066457;28;20077;-84
2021/08/24 11:43:33;;;;;;;1.80;1.70;;;;;;;;;;5066621;28;20025;-83
2021/08/24 11:46:02;;;;;;;1.58;1.45;;;;;;;;;;5069344;28;20124;-83
2021/08/24 11:48:30;;;;;;;1.00;1.00;;;;;;;;;;5066430;28;20021;-83
2021/08/24 11:51:15;;;;;;;1.73;1.63;;;;;;;;;;5066070;28;20029;-84
2021/08/24 11:53:53;;;;;;;1.75;1.65;;;;;;;;;;5067516;28;20120;-83
2021/08/24 11:56:29;;;;;;;1.33;1.23;;;;;;;;;;5065824;28;20047;-85
2021/08/24 11:58:55;;;;;;;1.63;1.52;;;;;;;;;;5067878;28;20032;-83
2021/08/24 12:01:22;;;;;;;1.40;1.30;;;;;;;;;;5067775;28;20040;-84
2021/08/24 12:03:53;;;;;;;1.92;1.83;;;;;;;;;;5066935;28;20024;-84
2021/08/24 12:06:24;;;;;;;1.92;1.75;;;;;;;;;;5068878;28;20051;-84
2021/08/24 12:08:53;;;;;;;2.63;1.80;;;;;;;;;;5065573;28;20029;-84
2021/08/24 12:11:22;;;;;;;2.05;1.90;;;;;;;;;;5066101;28;20036;-85
2021/08/24 12:13:51;;;;;;;2.33;1.33;;;;;;;;;;5067974;28;20025;-83
2021/08/24 12:16:17;;;;;;;2.03;1.80;;;;;;;;;;5064602;28;20032;-85
2021/08/24 12:18:43;;;;;;;1.52;1.42;;;;;;;;;;5067707;28;20025;-83
2021/08/24 12:21:28;;;;;;;2.85;1.42;;;;;;;;;;5065159;28;20040;-85
2021/08/24 12:23:55;;;;;;;7.85;2.95;;;;;;;;;;5066771;28;20339;-85
2021/08/24 12:26:32;;;;;;;1.90;1.50;;;;;;;;;;5068031;28;20055;-84
2021/08/24 12:29:08;;;;;;;2.72;2.17;;;;;;;;;;5067499;28;20045;-84
2021/08/24 12:31:37;;;;;;;2.85;1.95;;;;;;;;;;5074291;28;20047;-85
2021/08/24 12:34:22;;;;;;;1.55;1.45;;;;;;;;;;5071211;28;20029;-83
2021/08/24 12:36:48;;;;;;;1.60;1.50;;;;;;;;;;5061351;28;20063;-83
2021/08/24 12:39:33;;;;;;;2.70;2.35;;;;;;;;;;5062080;28;20017;-83
2021/08/24 12:42:20;;;;;;;1.90;1.80;;;;;;;;;;5058678;28;20339;-83
2021/08/24 12:44:49;;;;;;;1.65;1.50;;;;;;;;;;5041965;28;20152;-82
2021/08/24 12:47:28;;;;;;;2.40;1.83;;;;;;;;;;5055278;28;20022;-83
2021/08/24 12:49:54;;;;;;;3.83;2.40;;;;;;;;;;5041001;28;20053;-84
2021/08/24 12:52:20;;;;;;;1.45;1.35;;;;;;;;;;5061286;28;20056;-84
2021/08/24 12:54:57;;;;;;;1.92;1.40;;;;;;;;;;5079680;28;20469;-83
2021/08/24 12:57:26;;;;;;;2.85;2.00;;;;;;;;;;5064871;28;20033;-84
2021/08/24 12:59:53;;;;;;;3.40;2.08;;;;;;;;;;5066148;28;20374;-84
2021/08/24 13:02:38;;;;;;;2.08;1.58;;;;;;;;;;5065227;28;20029;-84
2021/08/24 13:05:13;;;;;;;1.95;1.77;;;;;;;;;;5067507;28;20087;-83
2021/08/24 13:07:43;;;;;;;1.95;1.77;;;;;;;;;;5066028;28;20105;-85
2021/08/24 13:10:18;;;;;;;2.25;1.77;;;;;;;;;;5066682;28;20060;-84
2021/08/24 13:12:45;;;;;;;2.38;1.80;;;;;;;;;;5066225;28;20028;-85
2021/08/24 13:15:34;;;;;;;1.92;1.50;;;;;;;;;;5066006;28;20040;-85
2021/08/24 13:18:01;;;;;;;2.53;1.60;;;;;;;;;;5055098;28;20092;-85
2021/08/24 13:20:35;;;;;;;1.95;1.45;;;;;;;;;;5066256;28;20056;-82
2021/08/24 13:23:04;;;;;;;3.42;1.30;;;;;;;;;;5065936;28;20033;-83
2021/08/24 13:25:31;;;;;;;2.60;1.40;;;;;;;;;;5065935;28;20043;-84
2021/08/24 13:27:59;;;;;;;2.33;1.35;;;;;;;;;;5066204;28;20049;-84
2021/08/24 13:30:45;;;;;;;1.33;1.20;;;;;;;;;;5065682;28;20013;-83
2021/08/24 13:33:15;;;;;;;1.38;1.27;;;;;;;;;;5062416;28;20034;-85
2021/08/24 13:35:44;;;;;;;1.45;1.35;;;;;;;;;;5067100;28;20033;-85
2021/08/24 13:38:10;;;;;;;1.40;1.30;;;;;;;;;;5060915;28;20032;-84
2021/08/24 13:40:36;;;;;;;3.13;1.40;;;;;;;;;;5047284;28;20056;-85
2021/08/24 13:43:04;;;;;;;1.30;1.30;;;;;;;;;;5082021;28;20039;-85
2021/08/24 13:45:33;;;;;;;0.90;0.90;;;;;;;;;;5067078;28;20028;-84
2021/08/24 13:48:00;;;;;;;2.50;1.63;;;;;;;;;;5066924;28;20036;-84
2021/08/24 13:50:28;;;;;;;2.08;1.38;;;;;;;;;;5064576;28;20025;-83
2021/08/24 13:53:03;;;;;;;1.50;1.40;;;;;;;;;;5062224;28;20036;-83
2021/08/24 13:55:31;;;;;;;1.38;1.20;;;;;;;;;;5062499;28;20091;-83
2021/08/24 13:58:13;;;;;;;1.65;1.15;;;;;;;;;;5064024;28;20024;-83
2021/08/24 14:00:39;;;;;;;2.53;1.20;;;;;;;;;;5062751;28;20091;-82
2021/08/24 14:03:10;;;;;;;1.63;1.20;;;;;;;;;;5062893;28;20033;-83
2021/08/24 14:05:36;;;;;;;2.27;1.30;;;;;;;;;;5063016;28;20021;-84
2021/08/24 14:08:02;;;;;;;1.58;1.48;;;;;;;;;;5063839;28;20025;-84
2021/08/24 14:10:29;;;;;;;1.10;1.10;;;;;;;;;;5063227;28;20040;-84
2021/08/24 14:12:59;;;;;;;1.67;1.23;;;;;;;;;;5063681;28;20025;-84
2021/08/24 14:15:30;;;;;;;1.27;1.20;;;;;;;;;;5067019;28;20066;-84
2021/08/24 14:18:00;;;;;;;1.35;1.25;;;;;;;;;;5074775;28;20017;-83
2021/08/24 14:20:28;;;;;;;1.80;1.38;;;;;;;;;;5067669;28;20025;-84
2021/08/24 14:23:00;;;;;;;2.45;1.50;;;;;;;;;;5063647;28;20036;-84
2021/08/24 14:25:28;;;;;;;3.67;1.25;;;;;;;;;;5064046;28;20078;-84
2021/08/24 14:27:56;;;;;;;1.45;1.35;;;;;;;;;;5063998;28;20048;-83
2021/08/24 14:30:22;;;;;;;1.45;1.35;;;;;;;;;;5071220;28;20073;-81
2021/08/24 14:32:49;;;;;;;1.40;1.30;;;;;;;;;;5070207;28;20029;-79
2021/08/24 14:35:33;;;;;;;1.85;1.30;;;;;;;;;;5070175;28;20039;-81
2021/08/24 14:37:59;;;;;;;1.55;1.38;;;;;;;;;;5073278;28;20058;-81
2021/08/24 14:40:27;;;;;;;1.40;1.30;;;;;;;;;;5071453;28;20044;-82
2021/08/24 14:42:55;;;;;;;2.15;1.95;;;;;;;;;;5073186;28;20036;-82
2021/08/24 14:45:23;;;;;;;1.73;1.50;;;;;;;;;;5066988;28;20032;-80
2021/08/24 14:47:51;;;;;;;1.92;1.83;;;;;;;;;;5067358;28;20039;-82
2021/08/24 14:50:23;;;;;;;2.65;1.80;;;;;;;;;;5064339;28;20441;-82
2021/08/24 14:52:50;;;;;;;2.50;2.30;;;;;;;;;;5066673;28;20029;-82
2021/08/24 14:55:36;;;;;;;2.42;2.17;;;;;;;;;;5063225;28;20078;-81
2021/08/24 14:58:05;;;;;;;2.28;2.03;;;;;;;;;;5062242;28;20060;-82
2021/08/24 15:00:34;;;;;;;2.67;2.00;;;;;;;;;;5062796;28;20377;-83